createdAt,value
2023-03-14T00:00:19.211Z,9.30
2023-03-14T00:02:21.920Z,9.40
2023-03-14T00:04:24.556Z,9.40
2023-03-14T00:06:27.720Z,9.40
2023-03-14T00:08:30.230Z,9.50
2023-03-14T00:10:32.661Z,9.40
2023-03-14T00:12:35.527Z,9.50
2023-03-14T00:14:40.723Z,9.60
2023-03-14T00:16:46.473Z,9.60
2023-03-14T00:18:52.072Z,9.70
2023-03-14T00:20:54.828Z,9.70
2023-03-14T00:22:57.327Z,10.30
2023-03-14T00:24:59.933Z,9.80
2023-03-14T00:27:02.356Z,9.90
2023-03-14T00:29:05.054Z,9.90
2023-03-14T00:31:13.344Z,10.00
2023-03-14T00:33:19.577Z,10.00
2023-03-14T00:35:22.172Z,10.00
2023-03-14T00:37:24.761Z,10.00
2023-03-14T00:39:27.421Z,10.00
2023-03-14T00:41:29.857Z,10.00
2023-03-14T00:43:32.290Z,10.00
2023-03-14T00:45:34.738Z,10.00
2023-03-14T00:47:39.993Z,10.10
2023-03-14T00:49:44.553Z,10.10
2023-03-14T00:51:55.078Z,10.10
2023-03-14T00:54:00.230Z,10.70
2023-03-14T00:56:04.854Z,10.20
2023-03-14T00:58:08.105Z,10.10
2023-03-14T01:00:15.782Z,10.10
2023-03-14T01:02:18.819Z,10.20
2023-03-14T01:04:24.230Z,10.20
2023-03-14T01:06:28.999Z,10.20
2023-03-14T01:08:31.706Z,10.20
2023-03-14T01:10:34.393Z,10.20
2023-03-14T01:12:37.066Z,10.60
2023-03-14T01:14:39.535Z,10.30
2023-03-14T01:16:42.217Z,10.30
2023-03-14T01:18:47.106Z,10.30
2023-03-14T01:20:52.432Z,10.20
2023-03-14T01:22:55.542Z,10.20
2023-03-14T01:24:58.098Z,10.20
2023-03-14T01:27:00.737Z,10.40
2023-03-14T01:29:05.434Z,10.30
2023-03-14T01:31:12.789Z,10.30
2023-03-14T01:33:15.930Z,10.30
2023-03-14T01:35:20.427Z,10.30
2023-03-14T01:37:25.919Z,10.30
2023-03-14T01:39:29.511Z,10.30
2023-03-14T01:41:32.986Z,10.30
2023-03-14T01:43:36.388Z,10.30
2023-03-14T01:46:20.540Z,10.30
2023-03-14T01:48:24.027Z,10.40
2023-03-14T01:50:30.218Z,10.40
2023-03-14T01:52:42.986Z,10.90
2023-03-14T01:54:50.721Z,10.40
2023-03-14T01:56:58.775Z,10.40
2023-03-14T01:59:05.417Z,10.40
2023-03-14T02:01:10.012Z,10.40
2023-03-14T02:03:18.854Z,10.50
2023-03-14T02:05:27.032Z,10.50
2023-03-14T02:07:47.751Z,10.40
2023-03-14T02:09:58.764Z,10.40
2023-03-14T02:12:16.075Z,10.70
2023-03-14T02:14:31.612Z,10.30
2023-03-14T02:16:52.678Z,10.40
2023-03-14T02:19:13.535Z,10.30
2023-03-14T02:21:46.103Z,10.40
2023-03-14T02:24:00.102Z,10.30
2023-03-14T02:26:16.486Z,10.20
2023-03-14T02:28:22.332Z,10.20
2023-03-14T02:30:31.975Z,10.10
2023-03-14T02:32:39.358Z,10.10
2023-03-14T02:34:45.680Z,10.00
2023-03-14T02:36:49.070Z,9.30
2023-03-14T02:38:56.438Z,10.00
2023-03-14T02:41:01.488Z,9.90
2023-03-14T02:43:05.947Z,10.00
2023-03-14T02:45:38.333Z,10.00
2023-03-14T02:47:48.446Z,9.90
2023-03-14T02:49:53.466Z,9.90
2023-03-14T02:51:56.533Z,10.90
2023-03-14T02:53:59.265Z,9.90
2023-03-14T02:56:02.329Z,10.00
2023-03-14T02:58:09.995Z,10.10
2023-03-14T03:00:14.193Z,10.00
2023-03-14T03:02:17.419Z,9.90
2023-03-14T03:04:22.954Z,9.90
2023-03-14T03:06:25.396Z,9.90
2023-03-14T03:08:28.693Z,9.90
2023-03-14T03:10:33.578Z,10.00
2023-03-14T03:12:36.070Z,9.90
2023-03-14T03:14:38.735Z,9.90
2023-03-14T03:16:45.022Z,9.80
2023-03-14T03:18:47.727Z,9.70
2023-03-14T03:20:52.871Z,9.70
2023-03-14T03:22:55.364Z,9.70
2023-03-14T03:24:59.928Z,9.60
2023-03-14T03:27:02.611Z,9.60
2023-03-14T03:29:05.120Z,9.40
2023-03-14T03:31:11.895Z,9.40
2023-03-14T03:33:15.526Z,9.40
2023-03-14T03:35:20.680Z,9.30
2023-03-14T03:37:25.950Z,9.30
2023-03-14T03:39:28.801Z,8.60
2023-03-14T03:41:32.777Z,9.20
2023-03-14T03:43:35.354Z,9.20
2023-03-14T03:45:39.502Z,9.20
2023-03-14T03:47:42.446Z,9.20
2023-03-14T03:49:45.276Z,9.30
2023-03-14T03:51:48.267Z,9.20
2023-03-14T03:53:53.643Z,9.20
2023-03-14T03:56:03.649Z,9.20
2023-03-14T03:58:06.156Z,9.20
2023-03-14T04:00:13.839Z,9.20
2023-03-14T04:02:21.005Z,9.20
2023-03-14T04:04:25.991Z,9.30
2023-03-14T04:06:29.601Z,9.20
2023-03-14T04:08:34.621Z,9.20
2023-03-14T04:10:40.192Z,9.20
2023-03-14T04:12:46.043Z,9.20
2023-03-14T04:14:53.547Z,9.20
2023-03-14T04:16:57.710Z,9.40
2023-03-14T04:19:00.686Z,9.20
2023-03-14T04:21:03.861Z,9.80
2023-03-14T04:23:16.403Z,9.20
2023-03-14T04:25:21.315Z,9.60
2023-03-14T04:27:31.461Z,9.20
2023-03-14T04:29:35.505Z,9.30
2023-03-14T04:31:38.182Z,9.10
2023-03-14T04:33:40.792Z,9.40
2023-03-14T04:35:43.676Z,9.30
2023-03-14T04:37:50.212Z,9.20
2023-03-14T04:39:53.909Z,9.60
2023-03-14T04:42:02.552Z,9.10
2023-03-14T04:44:08.041Z,9.10
2023-03-14T04:46:11.838Z,9.10
2023-03-14T04:48:15.184Z,9.10
2023-03-14T04:50:18.260Z,9.10
2023-03-14T04:52:21.260Z,9.10
2023-03-14T04:54:23.574Z,9.00
2023-03-14T04:56:30.515Z,9.00
2023-03-14T04:58:33.678Z,9.00
2023-03-14T05:00:40.059Z,9.00
2023-03-14T05:03:16.988Z,9.00
2023-03-14T05:05:28.347Z,9.00
2023-03-14T05:07:49.136Z,9.00
2023-03-14T05:10:20.994Z,9.00
2023-03-14T05:12:49.491Z,9.50
2023-03-14T05:15:21.113Z,9.00
2023-03-14T05:17:40.683Z,9.00
2023-03-14T05:20:18.997Z,10.10
2023-03-14T05:22:49.080Z,9.00
2023-03-14T05:25:16.749Z,8.90
2023-03-14T05:27:47.355Z,8.90
2023-03-14T05:30:21.386Z,9.00
2023-03-14T05:32:46.852Z,8.90
2023-03-14T05:35:08.752Z,8.90
2023-03-14T05:37:24.726Z,8.90
2023-03-14T05:39:50.154Z,10.00
2023-03-14T05:42:11.332Z,8.90
2023-03-14T05:44:28.085Z,8.90
2023-03-14T05:46:50.737Z,8.90
2023-03-14T05:49:07.579Z,8.80
2023-03-14T05:51:41.345Z,8.90
2023-03-14T05:54:24.468Z,8.90
2023-03-14T05:57:13.064Z,8.90
2023-03-14T05:59:56.910Z,8.90
2023-03-14T06:02:50.638Z,8.80
2023-03-14T06:05:22.336Z,8.80
2023-03-14T06:07:27.177Z,8.80
2023-03-14T06:09:29.698Z,8.80
2023-03-14T06:11:35.246Z,8.80
2023-03-14T06:13:38.650Z,8.80
2023-03-14T06:15:41.084Z,8.80
2023-03-14T06:17:44.670Z,8.80
2023-03-14T06:19:48.842Z,8.80
2023-03-14T06:21:53.977Z,8.80
2023-03-14T06:23:56.498Z,8.80
2023-03-14T06:26:00.257Z,9.40
2023-03-14T06:28:06.388Z,8.80
2023-03-14T06:30:14.410Z,8.80
2023-03-14T06:32:17.069Z,8.90
2023-03-14T06:34:19.431Z,9.50
2023-03-14T06:36:22.245Z,8.90
2023-03-14T06:38:28.359Z,8.80
2023-03-14T06:40:32.727Z,8.70
2023-03-14T06:42:44.876Z,9.30
2023-03-14T06:44:48.133Z,8.20
2023-03-14T06:46:52.638Z,8.30
2023-03-14T06:48:56.143Z,7.80
2023-03-14T06:51:06.866Z,8.90
2023-03-14T06:53:18.613Z,7.50
2023-03-14T06:55:29.659Z,7.90
2023-03-14T06:57:37.659Z,8.20
2023-03-14T06:59:48.832Z,7.70
2023-03-14T07:01:56.972Z,6.60
2023-03-14T07:04:05.242Z,6.30
2023-03-14T07:06:09.675Z,7.80
2023-03-14T07:08:13.223Z,6.10
2023-03-14T07:10:22.634Z,5.80
2023-03-14T07:12:32.425Z,5.60
2023-03-14T07:14:35.578Z,5.60
2023-03-14T07:16:40.025Z,6.80
2023-03-14T07:18:48.173Z,5.30
2023-03-14T07:20:57.005Z,5.40
2023-03-14T07:23:04.317Z,4.20
2023-03-14T07:25:19.108Z,5.00
2023-03-14T07:27:21.588Z,5.00
2023-03-14T07:29:28.230Z,4.00
2023-03-14T07:31:31.805Z,4.80
2023-03-14T07:33:35.171Z,4.80
2023-03-14T07:35:41.028Z,6.30
2023-03-14T07:37:48.051Z,4.50
2023-03-14T07:39:51.386Z,5.80
2023-03-14T07:42:00.351Z,4.40
2023-03-14T07:44:21.781Z,4.40
2023-03-14T07:46:32.095Z,5.60
2023-03-14T07:48:34.785Z,4.30
2023-03-14T07:50:37.576Z,4.60
2023-03-14T07:52:41.712Z,5.70
2023-03-14T07:54:47.043Z,4.40
2023-03-14T07:56:49.595Z,4.70
2023-03-14T07:58:52.864Z,4.50
2023-03-14T08:00:55.487Z,5.30
2023-03-14T08:03:04.729Z,4.50
2023-03-14T08:05:08.599Z,4.40
2023-03-14T08:07:12.090Z,4.40
2023-03-14T08:09:15.118Z,4.50
2023-03-14T08:11:17.569Z,4.50
2023-03-14T08:13:22.443Z,4.50
2023-03-14T08:15:25.211Z,4.50
2023-03-14T08:17:30.971Z,3.50
2023-03-14T08:19:36.213Z,4.60
2023-03-14T08:21:38.711Z,4.70
2023-03-14T08:23:41.464Z,4.70
2023-03-14T08:25:44.496Z,6.30
2023-03-14T08:27:50.033Z,6.50
2023-03-14T08:29:55.878Z,4.90
2023-03-14T08:31:58.472Z,5.00
2023-03-14T08:34:05.421Z,5.10
2023-03-14T08:36:14.132Z,5.10
2023-03-14T08:38:20.245Z,5.30
2023-03-14T08:40:25.541Z,5.30
2023-03-14T08:42:40.933Z,5.30
2023-03-14T08:44:45.220Z,5.30
2023-03-14T08:46:50.831Z,5.40
2023-03-14T08:48:54.865Z,5.50
2023-03-14T08:50:57.539Z,5.50
2023-03-14T08:53:03.740Z,6.20
2023-03-14T08:55:12.932Z,5.80
2023-03-14T08:57:18.214Z,5.60
2023-03-14T08:59:21.168Z,5.70
2023-03-14T09:01:26.430Z,5.70
2023-03-14T09:04:09.041Z,5.80
2023-03-14T09:06:11.962Z,5.80
2023-03-14T09:08:17.854Z,6.10
2023-03-14T09:10:20.915Z,5.90
2023-03-14T09:12:28.828Z,6.00
2023-03-14T09:14:31.282Z,6.10
2023-03-14T09:16:35.048Z,6.90
2023-03-14T09:18:37.890Z,6.20
2023-03-14T09:20:41.456Z,6.30
2023-03-14T09:22:44.625Z,6.40
2023-03-14T09:24:50.379Z,6.50
2023-03-14T09:26:56.937Z,6.50
2023-03-14T09:28:59.484Z,6.50
2023-03-14T09:31:08.935Z,6.40
2023-03-14T09:33:11.490Z,6.40
2023-03-14T09:35:14.070Z,6.40
2023-03-14T09:37:21.144Z,6.40
2023-03-14T09:39:23.668Z,6.40
2023-03-14T09:41:32.665Z,6.40
2023-03-14T09:43:37.125Z,6.40
2023-03-14T09:45:44.295Z,6.30
2023-03-14T09:47:58.783Z,7.00
2023-03-14T09:50:02.895Z,6.20
2023-03-14T09:52:12.527Z,6.20
2023-03-14T09:54:30.955Z,6.30
2023-03-14T09:56:36.243Z,5.50
2023-03-14T09:58:42.205Z,6.50
2023-03-14T10:00:50.124Z,6.50
2023-03-14T10:03:21.006Z,6.60
2023-03-14T10:05:25.204Z,6.60
2023-03-14T10:07:32.497Z,7.20
2023-03-14T10:09:37.025Z,6.60
2023-03-14T10:11:43.297Z,7.10
2023-03-14T10:14:07.741Z,6.50
2023-03-14T10:16:11.199Z,7.00
2023-03-14T10:18:16.835Z,6.50
2023-03-14T10:20:34.780Z,6.50
2023-03-14T10:22:39.282Z,6.60
2023-03-14T10:24:47.078Z,7.20
2023-03-14T10:26:59.312Z,6.60
2023-03-14T10:29:04.992Z,6.70
2023-03-14T10:31:08.210Z,8.10
2023-03-14T10:33:12.534Z,6.70
2023-03-14T10:35:21.962Z,7.20
2023-03-14T10:37:33.037Z,6.80
2023-03-14T10:39:43.421Z,6.80
2023-03-14T10:41:53.717Z,6.80
2023-03-14T10:44:00.123Z,8.30
2023-03-14T10:46:09.575Z,6.70
2023-03-14T10:48:34.993Z,6.70
2023-03-14T10:50:38.716Z,7.60
2023-03-14T10:53:02.057Z,6.80
2023-03-14T10:55:11.925Z,7.00
2023-03-14T10:57:23.739Z,7.20
2023-03-14T10:59:30.273Z,7.20
2023-03-14T11:01:45.574Z,7.80
2023-03-14T11:04:16.055Z,7.50
2023-03-14T11:06:24.687Z,7.20
2023-03-14T11:08:36.797Z,7.10
2023-03-14T11:10:45.072Z,5.90
2023-03-14T11:13:08.005Z,7.00
2023-03-14T11:15:24.020Z,7.00
2023-03-14T11:17:32.396Z,8.20
2023-03-14T11:19:52.321Z,7.10
2023-03-14T11:22:00.692Z,7.30
2023-03-14T11:24:22.194Z,8.70
2023-03-14T11:26:34.154Z,7.30
2023-03-14T11:28:43.949Z,7.20
2023-03-14T11:30:52.384Z,7.00
2023-03-14T11:33:02.535Z,7.00
2023-03-14T11:35:13.834Z,7.10
2023-03-14T11:37:22.152Z,7.20
2023-03-14T11:39:27.309Z,7.10
2023-03-14T11:41:35.020Z,7.00
2023-03-14T11:43:46.402Z,7.10
2023-03-14T11:45:51.915Z,7.00
2023-03-14T11:48:16.005Z,6.80
2023-03-14T11:50:22.847Z,6.70
2023-03-14T11:52:30.867Z,6.80
2023-03-14T11:54:43.928Z,7.00
2023-03-14T11:56:55.919Z,7.60
2023-03-14T11:59:06.918Z,7.40
2023-03-14T12:01:25.589Z,8.10
2023-03-14T12:03:33.858Z,7.70
2023-03-14T12:05:49.856Z,7.80
2023-03-14T12:08:23.896Z,7.90
2023-03-14T12:10:27.376Z,7.90
2023-03-14T12:12:38.886Z,7.70
2023-03-14T12:14:55.257Z,7.00
2023-03-14T12:17:21.133Z,7.40
2023-03-14T12:19:34.874Z,7.40
2023-03-14T12:21:50.278Z,8.80
2023-03-14T12:23:55.769Z,8.50
2023-03-14T12:26:15.743Z,7.20
2023-03-14T12:28:22.339Z,7.10
2023-03-14T12:30:29.448Z,7.10
2023-03-14T12:32:33.348Z,7.00
2023-03-14T12:34:42.206Z,7.10
2023-03-14T12:36:58.570Z,7.00
2023-03-14T12:39:11.450Z,7.00
2023-03-14T12:41:18.843Z,7.00
2023-03-14T12:43:27.774Z,6.90
2023-03-14T12:45:33.942Z,6.80
2023-03-14T12:47:53.016Z,6.80
2023-03-14T12:49:58.379Z,6.80
2023-03-14T12:52:01.999Z,6.80
2023-03-14T12:54:40.431Z,6.80
2023-03-14T12:57:00.795Z,6.90
2023-03-14T12:59:36.062Z,7.00
2023-03-14T13:01:49.251Z,6.90
2023-03-14T13:03:55.090Z,6.80
2023-03-14T13:05:59.261Z,6.70
2023-03-14T13:08:07.519Z,6.70
2023-03-14T13:10:23.740Z,6.70
2023-03-14T13:12:31.802Z,6.70
2023-03-14T13:14:35.844Z,6.80
2023-03-14T13:16:38.381Z,6.80
2023-03-14T13:18:47.269Z,7.10
2023-03-14T13:20:55.499Z,7.60
2023-03-14T13:22:58.388Z,7.20
2023-03-14T13:25:03.043Z,7.30
2023-03-14T13:27:05.805Z,8.30
2023-03-14T13:29:17.233Z,7.50
2023-03-14T13:31:24.155Z,8.70
2023-03-14T13:33:26.783Z,7.60
2023-03-14T13:35:41.082Z,7.50
2023-03-14T13:37:43.771Z,7.50
2023-03-14T13:39:51.491Z,7.60
2023-03-14T13:41:54.509Z,7.60
2023-03-14T13:44:04.711Z,7.50
2023-03-14T13:46:15.084Z,7.40
2023-03-14T13:48:18.907Z,7.20
2023-03-14T13:50:21.292Z,8.20
2023-03-14T13:52:36.447Z,8.30
2023-03-14T13:54:40.477Z,7.20
2023-03-14T13:56:43.160Z,7.40
2023-03-14T13:58:47.249Z,7.80
2023-03-14T14:00:59.703Z,8.30
2023-03-14T14:03:02.323Z,7.60
2023-03-14T14:05:12.280Z,7.70
2023-03-14T14:07:20.968Z,7.50
2023-03-14T14:09:30.014Z,7.40
2023-03-14T14:11:48.852Z,7.90
2023-03-14T14:13:54.036Z,7.10
2023-03-14T14:16:00.610Z,7.00
2023-03-14T14:18:06.115Z,7.00
2023-03-14T14:20:24.110Z,7.10
2023-03-14T14:22:27.566Z,7.10
2023-03-14T14:24:34.362Z,7.00
2023-03-14T14:26:41.408Z,7.00
2023-03-14T14:29:00.306Z,6.90
2023-03-14T14:31:22.348Z,6.90
2023-03-14T14:33:25.397Z,6.80
2023-03-14T14:35:33.428Z,6.80
2023-03-14T14:37:42.500Z,7.00
2023-03-14T14:39:48.174Z,6.80
2023-03-14T14:41:52.259Z,7.00
2023-03-14T14:43:54.748Z,6.90
2023-03-14T14:45:59.315Z,6.80
2023-03-14T14:48:07.173Z,6.80
2023-03-14T14:50:28.790Z,6.70
2023-03-14T14:52:42.505Z,6.50
2023-03-14T14:54:52.409Z,6.40
2023-03-14T14:57:02.291Z,6.20
2023-03-14T14:59:07.860Z,6.10
2023-03-14T15:01:15.576Z,6.00
2023-03-14T15:03:18.935Z,6.00
2023-03-14T15:05:23.450Z,6.10
2023-03-14T15:07:44.701Z,7.10
2023-03-14T15:09:50.107Z,6.50
2023-03-14T15:11:52.637Z,6.60
2023-03-14T15:13:56.539Z,6.70
2023-03-14T15:16:00.095Z,6.80
2023-03-14T15:18:03.830Z,6.90
2023-03-14T15:20:11.174Z,6.90
2023-03-14T15:22:17.070Z,6.90
2023-03-14T15:24:19.694Z,6.80
2023-03-14T15:26:27.397Z,6.70
2023-03-14T15:28:30.602Z,6.80
2023-03-14T15:30:33.008Z,6.40
2023-03-14T15:32:46.665Z,6.30
2023-03-14T15:34:49.452Z,6.30
2023-03-14T15:36:51.879Z,6.30
2023-03-14T15:38:56.068Z,6.40
2023-03-14T15:40:58.567Z,6.50
2023-03-14T15:43:04.037Z,6.50
2023-03-14T15:45:08.058Z,6.50
2023-03-14T15:47:15.663Z,6.60
2023-03-14T15:49:18.169Z,6.70
2023-03-14T15:51:21.000Z,6.70
2023-03-14T15:53:23.573Z,6.70
2023-03-14T15:55:26.217Z,6.70
2023-03-14T15:57:29.433Z,6.70
2023-03-14T15:59:36.462Z,6.90
2023-03-14T16:01:39.375Z,6.70
2023-03-14T16:03:45.035Z,6.80
2023-03-14T16:05:47.841Z,7.10
2023-03-14T16:07:50.828Z,6.50
2023-03-14T16:09:53.185Z,6.40
2023-03-14T16:11:55.598Z,6.30
2023-03-14T16:13:58.008Z,6.20
2023-03-14T16:16:07.268Z,6.10
2023-03-14T16:18:21.652Z,6.10
2023-03-14T16:20:29.320Z,6.10
2023-03-14T16:22:37.841Z,6.00
2023-03-14T16:24:40.482Z,5.90
2023-03-14T16:26:42.778Z,5.90
2023-03-14T16:28:46.168Z,5.90
2023-03-14T16:30:48.757Z,5.90
2023-03-14T16:32:53.998Z,5.70
2023-03-14T16:34:56.733Z,5.40
2023-03-14T16:36:59.497Z,5.10
2023-03-14T16:39:01.905Z,5.00
2023-03-14T16:41:06.625Z,5.00
2023-03-14T16:43:15.931Z,4.60
2023-03-14T16:45:18.683Z,4.90
2023-03-14T16:47:21.203Z,5.00
2023-03-14T16:49:26.309Z,5.00
2023-03-14T16:51:29.112Z,5.10
2023-03-14T16:53:31.691Z,5.10
2023-03-14T16:55:34.253Z,5.10
2023-03-14T16:57:36.700Z,5.10
2023-03-14T16:59:39.479Z,5.00
2023-03-14T17:02:01.906Z,5.20
2023-03-14T17:04:09.494Z,5.00
2023-03-14T17:06:17.170Z,5.00
2023-03-14T17:08:20.693Z,4.90
2023-03-14T17:10:23.572Z,4.90
2023-03-14T17:12:26.073Z,4.90
2023-03-14T17:14:28.754Z,6.20
2023-03-14T17:16:32.653Z,4.90
2023-03-14T17:18:36.118Z,4.90
2023-03-14T17:20:38.824Z,4.90
2023-03-14T17:22:43.890Z,5.00
2023-03-14T17:24:46.635Z,4.90
2023-03-14T17:26:49.347Z,3.60
2023-03-14T17:28:52.060Z,5.00
2023-03-14T17:31:03.696Z,4.20
2023-03-14T17:33:06.171Z,4.00
2023-03-14T17:35:08.806Z,3.90
2023-03-14T17:37:11.772Z,3.80
2023-03-14T17:39:17.181Z,3.70
2023-03-14T17:41:19.829Z,3.60
2023-03-14T17:43:26.247Z,3.60
2023-03-14T17:45:29.389Z,3.50
2023-03-14T17:47:31.958Z,3.50
2023-03-14T17:49:38.721Z,3.50
2023-03-14T17:51:41.433Z,3.50
2023-03-14T17:53:44.136Z,3.40
2023-03-14T17:55:50.236Z,4.00
2023-03-14T17:57:52.560Z,3.40
2023-03-14T17:59:55.058Z,3.40
2023-03-14T18:01:57.700Z,3.50
2023-03-14T18:04:00.222Z,3.40
2023-03-14T18:06:06.193Z,3.40
2023-03-14T18:08:12.496Z,4.40
2023-03-14T18:10:17.291Z,3.40
2023-03-14T18:12:23.019Z,3.30
2023-03-14T18:14:25.544Z,4.10
2023-03-14T18:16:28.104Z,3.30
2023-03-14T18:18:32.858Z,3.20
2023-03-14T18:20:55.179Z,3.20
2023-03-14T18:23:17.555Z,3.60
2023-03-14T18:25:40.665Z,3.10
2023-03-14T18:27:47.940Z,3.10
2023-03-14T18:29:52.672Z,3.00
2023-03-14T18:31:56.959Z,3.00
2023-03-14T18:34:00.128Z,3.00
2023-03-14T18:36:02.684Z,2.90
2023-03-14T18:38:05.262Z,2.90
2023-03-14T18:40:13.913Z,2.90
2023-03-14T18:42:16.696Z,2.90
2023-03-14T18:44:21.706Z,2.90
2023-03-14T18:46:24.326Z,3.10
2023-03-14T18:48:27.333Z,2.90
2023-03-14T18:50:30.054Z,2.90
2023-03-14T18:52:32.765Z,2.90
2023-03-14T18:54:36.663Z,2.90
2023-03-14T18:56:48.755Z,2.90
2023-03-14T18:58:53.407Z,2.90
2023-03-14T19:01:01.769Z,2.90
2023-03-14T19:03:29.292Z,2.90
2023-03-14T19:05:31.737Z,3.00
2023-03-14T19:07:34.275Z,3.00
2023-03-14T19:09:36.606Z,3.00
2023-03-14T19:11:39.042Z,3.10
2023-03-14T19:13:43.569Z,3.10
2023-03-14T19:15:46.026Z,3.10
2023-03-14T19:17:53.204Z,3.20
2023-03-14T19:19:56.943Z,3.20
2023-03-14T19:21:59.872Z,3.20
2023-03-14T19:24:03.309Z,3.20
2023-03-14T19:26:06.050Z,3.20
2023-03-14T19:28:08.746Z,3.20
2023-03-14T19:30:12.391Z,3.70
2023-03-14T19:32:17.908Z,3.20
2023-03-14T19:34:23.457Z,3.20
2023-03-14T19:36:27.595Z,3.10
2023-03-14T19:38:30.152Z,3.10
2023-03-14T19:40:32.891Z,2.90
2023-03-14T19:42:35.637Z,3.00
2023-03-14T19:44:38.394Z,3.00
2023-03-14T19:46:42.568Z,3.00
2023-03-14T19:48:46.036Z,3.80
2023-03-14T19:50:51.543Z,3.00
2023-03-14T19:52:54.379Z,2.90
2023-03-14T19:54:57.595Z,3.00
2023-03-14T19:57:04.187Z,2.90
2023-03-14T19:59:08.085Z,3.00
2023-03-14T20:01:12.839Z,2.90
2023-03-14T20:03:18.577Z,3.70
2023-03-14T20:05:23.148Z,4.30
2023-03-14T20:07:31.217Z,2.90
2023-03-14T20:09:33.649Z,2.90
2023-03-14T20:11:40.551Z,2.90
2023-03-14T20:13:44.670Z,2.80
2023-03-14T20:15:48.516Z,2.90
2023-03-14T20:17:52.033Z,2.80
2023-03-14T20:19:55.943Z,2.80
2023-03-14T20:21:59.971Z,2.80
2023-03-14T20:24:06.988Z,2.80
2023-03-14T20:26:09.730Z,2.80
2023-03-14T20:28:14.117Z,2.80
2023-03-14T20:30:19.078Z,2.80
2023-03-14T20:32:21.517Z,2.70
2023-03-14T20:34:24.205Z,2.70
2023-03-14T20:36:26.547Z,2.70
2023-03-14T20:38:31.161Z,2.70
2023-03-14T20:40:36.040Z,2.70
2023-03-14T20:42:39.217Z,2.70
2023-03-14T20:44:42.812Z,2.70
2023-03-14T20:46:45.982Z,2.70
2023-03-14T20:48:50.786Z,2.70
2023-03-14T20:50:53.915Z,2.70
2023-03-14T20:52:56.420Z,2.70
2023-03-14T20:54:59.855Z,2.70
2023-03-14T20:57:05.607Z,2.70
2023-03-14T20:59:08.082Z,2.70
2023-03-14T21:01:20.124Z,2.70
2023-03-14T21:03:24.314Z,2.70
2023-03-14T21:05:27.004Z,2.80
2023-03-14T21:07:31.193Z,2.70
2023-03-14T21:09:33.748Z,2.80
2023-03-14T21:11:42.667Z,2.80
2023-03-14T21:13:47.915Z,2.80
2023-03-14T21:15:50.801Z,2.80
2023-03-14T21:17:56.234Z,2.80
2023-03-14T21:19:58.496Z,3.50
2023-03-14T21:22:04.064Z,2.80
2023-03-14T21:24:07.616Z,2.80
2023-03-14T21:26:15.986Z,2.80
2023-03-14T21:28:18.684Z,2.80
2023-03-14T21:30:23.919Z,2.70
2023-03-14T21:32:26.280Z,2.70
2023-03-14T21:34:30.623Z,2.80
2023-03-14T21:36:32.790Z,2.80
2023-03-14T21:38:35.158Z,2.80
2023-03-14T21:40:37.812Z,2.80
2023-03-14T21:42:54.455Z,2.90
2023-03-14T21:44:56.818Z,2.90
2023-03-14T21:47:03.726Z,2.90
2023-03-14T21:49:07.262Z,3.00
2023-03-14T21:51:09.652Z,3.00
2023-03-14T21:53:19.513Z,2.90
2023-03-14T21:55:25.696Z,3.00
2023-03-14T21:57:30.170Z,3.00
2023-03-14T21:59:34.059Z,3.00
2023-03-14T22:01:38.317Z,3.00
2023-03-14T22:03:45.934Z,3.00
2023-03-14T22:05:48.323Z,3.00
2023-03-14T22:07:50.652Z,2.90
2023-03-14T22:09:54.541Z,2.90
2023-03-14T22:11:56.995Z,2.90
2023-03-14T22:14:01.544Z,2.90
2023-03-14T22:16:04.282Z,2.80
2023-03-14T22:18:07.882Z,2.80
2023-03-14T22:20:24.244Z,2.70
2023-03-14T22:22:27.970Z,2.70
2023-03-14T22:24:31.405Z,2.70
2023-03-14T22:26:33.811Z,2.70
2023-03-14T22:28:36.135Z,2.70
2023-03-14T22:30:38.500Z,2.60
2023-03-14T22:32:41.130Z,2.60
2023-03-14T22:34:43.633Z,3.40
2023-03-14T22:36:48.738Z,2.60
2023-03-14T22:38:51.126Z,2.50
2023-03-14T22:40:53.650Z,2.50
2023-03-14T22:42:56.970Z,2.50
2023-03-14T22:44:59.662Z,3.60
2023-03-14T22:47:02.312Z,2.60
2023-03-14T22:49:07.420Z,2.60
2023-03-14T22:51:11.099Z,2.60
2023-03-14T22:53:16.894Z,2.60
2023-03-14T22:55:19.353Z,4.20
2023-03-14T22:57:22.568Z,2.60
2023-03-14T22:59:25.153Z,2.60
2023-03-14T23:01:28.537Z,2.60
2023-03-14T23:03:33.768Z,2.60
2023-03-14T23:05:36.090Z,2.70
2023-03-14T23:07:38.624Z,2.70
2023-03-14T23:09:43.590Z,3.50
2023-03-14T23:11:45.959Z,2.70
2023-03-14T23:13:48.612Z,2.80
2023-03-14T23:15:51.072Z,2.90
2023-03-14T23:17:53.680Z,2.90
2023-03-14T23:19:56.301Z,2.90
2023-03-14T23:21:58.623Z,2.90
2023-03-14T23:24:05.843Z,2.90
2023-03-14T23:26:12.071Z,2.90
2023-03-14T23:28:14.459Z,2.90
2023-03-14T23:30:17.470Z,3.00
2023-03-14T23:32:19.999Z,3.00
2023-03-14T23:34:22.471Z,3.00
2023-03-14T23:36:24.816Z,3.00
2023-03-14T23:38:27.231Z,3.00
2023-03-14T23:40:29.795Z,3.00
2023-03-14T23:42:35.334Z,3.00
2023-03-14T23:44:55.420Z,3.00
2023-03-14T23:46:57.803Z,3.00
2023-03-14T23:49:00.593Z,3.10
2023-03-14T23:51:07.826Z,3.10
2023-03-14T23:53:10.368Z,3.10
2023-03-14T23:55:12.907Z,3.10
2023-03-14T23:57:15.337Z,3.10
2023-03-14T23:59:20.646Z,3.20
